Time;durP1;ratioP1;P1;durP2;ratioP2;P2;SDS_P1;SDS_P2;PMS_P1;PMS_P2;Temp;Humidity;BMP_temperature;BMP_pressure;BME280_temperature;BME280_humidity;BME280_pressure;Samples;Min_cycle;Max_cycle;Signal;HPM_P1;HPM_P2
2024/01/28 00:01:06;;;;;;;;;;;128.30;2252.80;;;;;;5110877;27;20272;-77
2024/01/28 00:03:32;;;;;;;;;;;128.20;2252.80;;;;;;5130533;27;19952;-77
2024/01/28 00:05:58;;;;;;;;;;;128.30;2252.80;;;;;;5118588;27;20313;-78
2024/01/28 00:08:25;;;;;;;;;;;128.20;2252.80;;;;;;5107083;27;19958;-78
2024/01/28 00:10:51;;;;;;;;;;;128.30;2252.80;;;;;;5116359;27;19935;-79
2024/01/28 00:13:18;;;;;;;;;;;128.40;2252.80;;;;;;5125343;27;20266;-78
2024/01/28 00:15:44;;;;;;;;;;;128.40;2252.80;;;;;;5108905;27;19907;-77
2024/01/28 00:18:09;;;;;;;;;;;128.40;2252.80;;;;;;5134899;27;20348;-78
2024/01/28 00:20:35;;;;;;;;;;;128.40;2252.80;;;;;;5127713;27;19917;-78
2024/01/28 00:23:01;;;;;;;;;;;128.10;2252.80;;;;;;5124769;27;19907;-78
2024/01/28 00:25:27;;;;;;;;;;;128.00;2252.80;;;;;;5121872;27;20266;-78
2024/01/28 00:27:52;;;;;;;;;;;128.00;2252.80;;;;;;5108230;28;19915;-77
2024/01/28 00:30:18;;;;;;;;;;;103.30;2227.20;;;;;;5126471;27;19911;-77
2024/01/28 00:32:44;;;;;;;;;;;103.30;2227.20;;;;;;5132166;27;19983;-77
2024/01/28 00:35:09;;;;;;;;;;;103.30;2227.20;;;;;;5114781;27;19908;-78
2024/01/28 00:37:35;;;;;;;;;;;103.30;2227.20;;;;;;5113940;27;19960;-77
2024/01/28 00:40:01;;;;;;;;;;;128.00;2252.80;;;;;;5107084;27;19915;-77
2024/01/28 00:42:27;;;;;;;;;;;128.00;2252.80;;;;;;5123946;27;19904;-77
2024/01/28 00:44:52;;;;;;;;;;;103.30;2227.20;;;;;;5110652;27;19912;-77
2024/01/28 00:47:18;;;;;;;;;;;128.00;2252.80;;;;;;5118856;27;19903;-77
2024/01/28 00:49:43;;;;;;;;;;;128.10;2252.80;;;;;;5137461;27;19910;-77
2024/01/28 00:52:09;;;;;;;;;;;128.10;2252.80;;;;;;5136539;27;19911;-78
2024/01/28 00:54:35;;;;;;;;;;;128.20;2252.80;;;;;;5136458;27;19914;-77
2024/01/28 00:57:00;;;;;;;;;;;128.20;2252.80;;;;;;5119223;27;19955;-77
2024/01/28 00:59:26;;;;;;;;;;;128.20;2252.80;;;;;;5137453;27;19903;-78
2024/01/28 01:01:52;;;;;;;;;;;128.10;2252.80;;;;;;5137495;27;19998;-78
2024/01/28 01:04:18;;;;;;;;;;;128.20;2252.80;;;;;;5118712;27;19903;-78
2024/01/28 01:06:44;;;;;;;;;;;128.10;2252.80;;;;;;5118638;27;20303;-78
2024/01/28 01:09:10;;;;;;;;;;;128.00;2252.80;;;;;;5118611;27;20399;-77
2024/01/28 01:11:35;;;;;;;;;;;128.00;2252.80;;;;;;5127308;27;19911;-78
2024/01/28 01:14:01;;;;;;;;;;;103.20;2227.20;;;;;;5150599;27;20348;-78
2024/01/28 01:16:27;;;;;;;;;;;128.10;2252.80;;;;;;5122830;27;20555;-77
2024/01/28 01:18:53;;;;;;;;;;;103.00;2227.20;;;;;;5120960;27;19911;-77
2024/01/28 01:21:19;;;;;;;;;;;103.10;2227.20;;;;;;5122390;27;19914;-77
2024/01/28 01:23:44;;;;;;;;;;;103.00;2227.20;;;;;;5123468;27;19915;-78
2024/01/28 01:26:10;;;;;;;;;;;102.90;2227.20;;;;;;5122381;27;19964;-77
2024/01/28 01:28:35;;;;;;;;;;;103.00;2227.20;;;;;;5140809;27;19946;-77
2024/01/28 01:31:02;;;;;;;;;;;102.90;2227.20;;;;;;5130428;27;20014;-78
2024/01/28 01:33:27;;;;;;;;;;;103.00;2227.20;;;;;;5146285;27;20010;-78
2024/01/28 01:35:53;;;;;;;;;;;102.90;2227.20;;;;;;5138943;27;19942;-78
2024/01/28 01:38:18;;;;;;;;;;;102.80;2227.20;;;;;;5122959;27;19959;-78
2024/01/28 01:40:44;;;;;;;;;;;102.90;2227.20;;;;;;5121028;27;20367;-78
2024/01/28 01:43:10;;;;;;;;;;;102.80;2227.20;;;;;;5116612;27;19989;-78
2024/01/28 01:45:41;;;;;;;;;;;102.70;2227.20;;;;;;5140186;27;19922;-78
2024/01/28 01:48:07;;;;;;;;;;;102.70;2227.20;;;;;;5144548;27;19907;-78
2024/01/28 01:50:33;;;;;;;;;;;102.70;2227.20;;;;;;5137095;27;19911;-78
2024/01/28 01:53:00;;;;;;;;;;;102.90;2227.20;;;;;;5114551;27;19923;-78
2024/01/28 01:55:26;;;;;;;;;;;103.00;2227.20;;;;;;5124101;27;20356;-77
2024/01/28 01:57:52;;;;;;;;;;;103.00;2227.20;;;;;;5100647;27;19911;-78
2024/01/28 02:00:18;;;;;;;;;;;103.00;2227.20;;;;;;5128972;27;19908;-78
2024/01/28 02:02:45;;;;;;;;;;;103.00;2227.20;;;;;;5097802;27;19911;-78
2024/01/28 02:05:11;;;;;;;;;;;103.10;2227.20;;;;;;5123971;27;19933;-78
2024/01/28 02:07:36;;;;;;;;;;;103.10;2227.20;;;;;;5098861;27;19911;-78
2024/01/28 02:10:03;;;;;;;;;;;103.10;2227.20;;;;;;5123534;27;19921;-78
2024/01/28 02:12:29;;;;;;;;;;;103.20;2227.20;;;;;;5101943;27;19903;-78
2024/01/28 02:15:05;;;;;;;;;;;103.20;2227.20;;;;;;5107792;28;19914;-78
2024/01/28 02:17:31;;;;;;;;;;;103.20;2227.20;;;;;;5111631;27;20017;-77
2024/01/28 02:19:56;;;;;;;;;;;103.30;2227.20;;;;;;5105465;27;19950;-79
2024/01/28 02:22:22;;;;;;;;;;;103.30;2227.20;;;;;;5127239;27;19911;-78
2024/01/28 02:24:48;;;;;;;;;;;103.20;2227.20;;;;;;5105838;27;19911;-78
2024/01/28 02:27:13;;;;;;;;;;;103.20;2227.20;;;;;;5111651;27;20298;-78
2024/01/28 02:29:39;;;;;;;;;;;102.90;2227.20;;;;;;5117878;27;19930;-78
2024/01/28 02:32:05;;;;;;;;;;;102.80;2227.20;;;;;;5104996;27;19907;-77
2024/01/28 02:34:30;;;;;;;;;;;102.60;2227.20;;;;;;5102142;28;19908;-78
2024/01/28 02:36:56;;;;;;;;;;;102.50;2227.20;;;;;;5101913;27;19903;-78
2024/01/28 02:39:21;;;;;;;;;;;102.40;2227.20;;;;;;5110617;27;20373;-78
2024/01/28 02:41:47;;;;;;;;;;;102.40;2227.20;;;;;;5123246;27;19903;-78
2024/01/28 02:44:13;;;;;;;;;;;77.70;2227.20;;;;;;5098559;27;19908;-77
2024/01/28 02:46:38;;;;;;;;;;;77.60;2227.20;;;;;;5122857;27;19964;-77
2024/01/28 02:49:04;;;;;;;;;;;77.40;2227.20;;;;;;5123925;27;19930;-78
2024/01/28 02:51:29;;;;;;;;;;;77.40;2227.20;;;;;;5096219;27;19910;-78
2024/01/28 02:53:55;;;;;;;;;;;77.50;2227.20;;;;;;5098655;28;20053;-77
2024/01/28 02:56:21;;;;;;;;;;;77.50;2227.20;;;;;;5101222;27;20380;-77
2024/01/28 02:58:47;;;;;;;;;;;77.70;2227.20;;;;;;5107694;28;19958;-78
2024/01/28 03:01:12;;;;;;;;;;;77.70;2227.20;;;;;;5105258;27;20315;-78
2024/01/28 03:03:38;;;;;;;;;;;77.70;2227.20;;;;;;5123711;27;19911;-78
2024/01/28 03:06:04;;;;;;;;;;;102.50;2227.20;;;;;;5119990;27;19916;-77
2024/01/28 03:08:30;;;;;;;;;;;77.70;2227.20;;;;;;5099946;28;19908;-78
2024/01/28 03:10:55;;;;;;;;;;;77.60;2227.20;;;;;;5098842;27;19915;-77
2024/01/28 03:13:21;;;;;;;;;;;77.70;2227.20;;;;;;5100768;27;19907;-78
2024/01/28 03:15:50;;;;;;;;;;;77.70;2227.20;;;;;;5121409;27;19942;-78
2024/01/28 03:18:16;;;;;;;;;;;102.40;2227.20;;;;;;5120847;27;19910;-78
2024/01/28 03:20:41;;;;;;;;;;;102.40;2227.20;;;;;;5122233;28;19995;-78
2024/01/28 03:23:07;;;;;;;;;;;102.50;2227.20;;;;;;5122040;28;19911;-78
2024/01/28 03:25:32;;;;;;;;;;;102.40;2227.20;;;;;;5126677;28;19923;-77
2024/01/28 03:27:58;;;;;;;;;;;102.50;2227.20;;;;;;5096392;28;19908;-78
2024/01/28 03:30:24;;;;;;;;;;;102.40;2227.20;;;;;;5107354;28;19907;-79
2024/01/28 03:32:49;;;;;;;;;;;77.70;2227.20;;;;;;5103691;28;19969;-78
2024/01/28 03:35:15;;;;;;;;;;;102.40;2227.20;;;;;;5099908;28;19911;-78
2024/01/28 03:37:40;;;;;;;;;;;102.40;2227.20;;;;;;5095996;28;19908;-78
2024/01/28 03:40:06;;;;;;;;;;;102.40;2227.20;;;;;;5104801;28;19928;-77
2024/01/28 03:42:32;;;;;;;;;;;102.40;2227.20;;;;;;5111376;28;19908;-78
2024/01/28 03:44:58;;;;;;;;;;;102.40;2227.20;;;;;;5113191;28;19911;-78
2024/01/28 03:47:23;;;;;;;;;;;102.50;2227.20;;;;;;5112955;28;20284;-78
2024/01/28 03:49:49;;;;;;;;;;;102.50;2227.20;;;;;;5105264;28;19918;-77
2024/01/28 03:52:15;;;;;;;;;;;102.60;2227.20;;;;;;5104532;28;19958;-78
2024/01/28 03:54:41;;;;;;;;;;;102.60;2227.20;;;;;;5093554;28;19908;-78
2024/01/28 03:57:07;;;;;;;;;;;102.60;2227.20;;;;;;5101291;28;19921;-78
2024/01/28 03:59:32;;;;;;;;;;;102.80;2227.20;;;;;;5124562;28;19957;-78
2024/01/28 04:01:58;;;;;;;;;;;102.80;2227.20;;;;;;5101413;28;19931;-77
2024/01/28 04:04:24;;;;;;;;;;;102.70;2227.20;;;;;;5124057;28;19903;-77
2024/01/28 04:06:49;;;;;;;;;;;102.70;2227.20;;;;;;5105719;28;19912;-78
2024/01/28 04:09:15;;;;;;;;;;;102.70;2227.20;;;;;;5119281;28;20323;-78
2024/01/28 04:11:41;;;;;;;;;;;102.80;2227.20;;;;;;5121525;27;19943;-78
2024/01/28 04:14:06;;;;;;;;;;;103.00;2227.20;;;;;;5095090;28;19908;-79
2024/01/28 04:16:33;;;;;;;;;;;103.00;2227.20;;;;;;5098006;27;19947;-78
2024/01/28 04:18:58;;;;;;;;;;;103.00;2227.20;;;;;;5093676;28;19904;-78
2024/01/28 04:21:24;;;;;;;;;;;102.90;2227.20;;;;;;5098998;27;19907;-79
2024/01/28 04:23:51;;;;;;;;;;;103.00;2227.20;;;;;;5112491;27;20441;-77
2024/01/28 04:26:17;;;;;;;;;;;103.00;2227.20;;;;;;5100010;28;20053;-78
2024/01/28 04:28:43;;;;;;;;;;;103.00;2227.20;;;;;;5105726;27;19954;-78
2024/01/28 04:31:08;;;;;;;;;;;103.00;2227.20;;;;;;5109817;27;19918;-78
2024/01/28 04:33:34;;;;;;;;;;;102.90;2227.20;;;;;;5107146;27;19908;-78
2024/01/28 04:36:00;;;;;;;;;;;103.00;2227.20;;;;;;5098821;27;20280;-78
2024/01/28 04:38:26;;;;;;;;;;;103.00;2227.20;;;;;;5105563;28;19907;-78
2024/01/28 04:40:51;;;;;;;;;;;102.90;2227.20;;;;;;5107766;27;19904;-78
2024/01/28 04:43:17;;;;;;;;;;;102.80;2227.20;;;;;;5104738;27;20280;-78
2024/01/28 04:45:43;;;;;;;;;;;102.90;2227.20;;;;;;5104468;27;19923;-78
2024/01/28 04:48:08;;;;;;;;;;;103.00;2227.20;;;;;;5109118;27;20375;-78
2024/01/28 04:50:34;;;;;;;;;;;102.90;2227.20;;;;;;5094221;28;19933;-78
2024/01/28 04:52:59;;;;;;;;;;;102.90;2227.20;;;;;;5113688;27;19916;-78
2024/01/28 04:55:25;;;;;;;;;;;102.90;2227.20;;;;;;5124070;27;19918;-78
2024/01/28 04:57:50;;;;;;;;;;;102.90;2227.20;;;;;;5105878;28;19907;-78
2024/01/28 05:00:17;;;;;;;;;;;102.90;2227.20;;;;;;5101671;28;19915;-78
2024/01/28 05:02:42;;;;;;;;;;;103.00;2227.20;;;;;;5104394;28;19915;-78
2024/01/28 05:05:08;;;;;;;;;;;103.00;2227.20;;;;;;5103593;28;19920;-78
2024/01/28 05:07:34;;;;;;;;;;;102.90;2227.20;;;;;;5104771;28;19918;-77
2024/01/28 05:09:59;;;;;;;;;;;102.80;2227.20;;;;;;5111691;28;19904;-78
2024/01/28 05:12:25;;;;;;;;;;;102.80;2227.20;;;;;;5106412;28;20323;-78
2024/01/28 05:14:51;;;;;;;;;;;102.90;2227.20;;;;;;5112290;28;20268;-77
2024/01/28 05:17:17;;;;;;;;;;;102.90;2227.20;;;;;;5109579;28;19912;-78
2024/01/28 05:19:42;;;;;;;;;;;102.90;2227.20;;;;;;5110662;28;19925;-77
2024/01/28 05:22:08;;;;;;;;;;;102.80;2227.20;;;;;;5107566;28;20299;-78
2024/01/28 05:24:34;;;;;;;;;;;102.80;2227.20;;;;;;5102239;28;19962;-77
2024/01/28 05:27:00;;;;;;;;;;;102.80;2227.20;;;;;;5103970;28;19915;-78
2024/01/28 05:29:25;;;;;;;;;;;102.80;2227.20;;;;;;5111919;28;19907;-78
2024/01/28 05:31:52;;;;;;;;;;;102.70;2227.20;;;;;;5108910;28;19958;-78
2024/01/28 05:34:17;;;;;;;;;;;102.70;2227.20;;;;;;5104839;28;19952;-78
2024/01/28 05:36:47;;;;;;;;;;;102.80;2227.20;;;;;;5105949;28;20685;-78
2024/01/28 05:39:13;;;;;;;;;;;102.80;2227.20;;;;;;5097091;28;19908;-78
2024/01/28 05:41:39;;;;;;;;;;;102.80;2227.20;;;;;;5101507;28;19904;-78
2024/01/28 05:44:04;;;;;;;;;;;102.90;2227.20;;;;;;5100234;28;19908;-78
2024/01/28 05:46:30;;;;;;;;;;;102.90;2227.20;;;;;;5107844;28;20025;-78
2024/01/28 05:48:55;;;;;;;;;;;102.80;2227.20;;;;;;5101263;28;19926;-77
2024/01/28 05:51:21;;;;;;;;;;;102.80;2227.20;;;;;;5101522;28;19911;-77
2024/01/28 05:53:47;;;;;;;;;;;102.80;2227.20;;;;;;5089963;28;19923;-77
2024/01/28 05:56:12;;;;;;;;;;;102.80;2227.20;;;;;;5108052;28;20002;-77
2024/01/28 05:58:38;;;;;;;;;;;102.70;2227.20;;;;;;5086259;28;19957;-78
2024/01/28 06:01:06;;;;;;;;;;;102.80;2227.20;;;;;;5103878;28;19904;-78
2024/01/28 06:03:33;;;;;;;;;;;102.70;2227.20;;;;;;5087436;28;19915;-78
2024/01/28 06:05:59;;;;;;;;;;;102.60;2227.20;;;;;;5103909;28;19915;-78
2024/01/28 06:08:24;;;;;;;;;;;102.70;2227.20;;;;;;5093078;28;20309;-78
2024/01/28 06:10:50;;;;;;;;;;;102.50;2227.20;;;;;;5088004;28;20002;-77
2024/01/28 06:13:15;;;;;;;;;;;102.50;2227.20;;;;;;5109734;28;20349;-77
2024/01/28 06:15:41;;;;;;;;;;;102.50;2227.20;;;;;;5107226;28;19907;-78
2024/01/28 06:18:07;;;;;;;;;;;102.40;2227.20;;;;;;5110340;28;20310;-78
2024/01/28 06:20:35;;;;;;;;;;;102.50;2227.20;;;;;;5111593;28;19908;-78
2024/01/28 06:23:01;;;;;;;;;;;102.50;2227.20;;;;;;5083895;28;19912;-78
2024/01/28 06:25:27;;;;;;;;;;;102.60;2227.20;;;;;;5113161;28;20009;-78
2024/01/28 06:27:52;;;;;;;;;;;102.70;2227.20;;;;;;5096146;28;19933;-78
2024/01/28 06:30:18;;;;;;;;;;;102.80;2227.20;;;;;;5104497;28;19954;-78
2024/01/28 06:32:43;;;;;;;;;;;102.90;2227.20;;;;;;5082704;28;19908;-78
2024/01/28 06:35:09;;;;;;;;;;;102.70;2227.20;;;;;;5086078;28;20345;-78
2024/01/28 06:37:36;;;;;;;;;;;102.80;2227.20;;;;;;5104752;28;19907;-79
2024/01/28 06:40:01;;;;;;;;;;;102.80;2227.20;;;;;;5106598;28;19961;-79
2024/01/28 06:42:27;;;;;;;;;;;103.00;2227.20;;;;;;5107129;28;19912;-78
2024/01/28 06:44:53;;;;;;;;;;;102.90;2227.20;;;;;;5081221;28;19908;-79
2024/01/28 06:47:19;;;;;;;;;;;102.90;2227.20;;;;;;5109509;28;20387;-78
2024/01/28 06:49:45;;;;;;;;;;;102.80;2227.20;;;;;;5108003;28;19910;-79
2024/01/28 06:52:11;;;;;;;;;;;102.80;2227.20;;;;;;5111023;28;20001;-79
2024/01/28 06:54:38;;;;;;;;;;;102.80;2227.20;;;;;;5097677;28;19908;-81
2024/01/28 06:57:04;;;;;;;;;;;102.90;2227.20;;;;;;5102355;28;20020;-78
2024/01/28 06:59:29;;;;;;;;;;;103.00;2227.20;;;;;;5109368;28;19910;-76
2024/01/28 07:01:56;;;;;;;;;;;103.00;2227.20;;;;;;5089697;28;19904;-76
2024/01/28 07:04:21;;;;;;;;;;;103.00;2227.20;;;;;;5094847;28;19947;-78
2024/01/28 07:06:47;;;;;;;;;;;103.10;2227.20;;;;;;5083720;28;19994;-78
2024/01/28 07:09:12;;;;;;;;;;;103.20;2227.20;;;;;;5101209;28;19912;-76
2024/01/28 07:11:38;;;;;;;;;;;103.10;2227.20;;;;;;5093069;28;19943;-77
2024/01/28 07:14:04;;;;;;;;;;;103.10;2227.20;;;;;;5108338;28;19908;-79
2024/01/28 07:16:29;;;;;;;;;;;103.20;2227.20;;;;;;5085241;28;19911;-79
2024/01/28 07:18:55;;;;;;;;;;;103.30;2227.20;;;;;;5080420;28;20364;-78
2024/01/28 07:21:22;;;;;;;;;;;128.00;2252.80;;;;;;5108049;28;19904;-79
2024/01/28 07:23:47;;;;;;;;;;;128.10;2252.80;;;;;;5084326;28;19912;-78
2024/01/28 07:26:13;;;;;;;;;;;128.10;2252.80;;;;;;5093400;28;19978;-76
2024/01/28 07:28:39;;;;;;;;;;;128.10;2252.80;;;;;;5095674;28;19919;-79
2024/01/28 07:31:06;;;;;;;;;;;128.00;2252.80;;;;;;5086896;28;20300;-77
2024/01/28 07:33:32;;;;;;;;;;;128.10;2252.80;;;;;;5087448;28;19908;-78
2024/01/28 07:35:58;;;;;;;;;;;128.00;2252.80;;;;;;5096021;28;19915;-79
2024/01/28 07:38:24;;;;;;;;;;;128.20;2252.80;;;;;;5084683;28;19912;-79
2024/01/28 07:40:49;;;;;;;;;;;128.20;2252.80;;;;;;5089509;28;19930;-79
2024/01/28 07:43:15;;;;;;;;;;;128.10;2252.80;;;;;;5112335;28;19929;-78
2024/01/28 07:45:42;;;;;;;;;;;128.20;2252.80;;;;;;5089192;28;19915;-78
2024/01/28 07:48:08;;;;;;;;;;;128.10;2252.80;;;;;;5086647;28;19908;-74
2024/01/28 07:50:33;;;;;;;;;;;128.20;2252.80;;;;;;5092749;28;19915;-78
2024/01/28 07:52:59;;;;;;;;;;;128.10;2252.80;;;;;;5106336;28;19916;-77
2024/01/28 07:55:25;;;;;;;;;;;128.20;2252.80;;;;;;5107574;28;19915;-77
2024/01/28 07:57:50;;;;;;;;;;;128.20;2252.80;;;;;;5095591;28;19908;-77
2024/01/28 08:00:16;;;;;;;;;;;128.20;2252.80;;;;;;5113922;28;19965;-76
2024/01/28 08:02:42;;;;;;;;;;;128.10;2252.80;;;;;;5089955;28;19946;-78
2024/01/28 08:05:08;;;;;;;;;;;128.10;2252.80;;;;;;5092747;28;20315;-76
2024/01/28 08:07:34;;;;;;;;;;;128.30;2252.80;;;;;;5086867;28;19918;-76
2024/01/28 08:09:59;;;;;;;;;;;128.20;2252.80;;;;;;5108125;28;19908;-76
2024/01/28 08:12:25;;;;;;;;;;;128.40;2252.80;;;;;;5085406;28;20250;-75
2024/01/28 08:14:50;;;;;;;;;;;128.40;2252.80;;;;;;5093374;28;19908;-77
2024/01/28 08:17:16;;;;;;;;;;;128.40;2252.80;;;;;;5092595;28;19908;-76
2024/01/28 08:19:42;;;;;;;;;;;128.40;2252.80;;;;;;5092884;28;19915;-74
2024/01/28 08:22:07;;;;;;;;;;;128.40;2252.80;;;;;;5090530;28;20081;-77
2024/01/28 08:24:33;;;;;;;;;;;128.40;2252.80;;;;;;5090802;28;20361;-77
2024/01/28 08:26:59;;;;;;;;;;;128.50;2252.80;;;;;;5111476;28;20694;-75
2024/01/28 08:29:25;;;;;;;;;;;128.40;2252.80;;;;;;5109463;28;19915;-75
2024/01/28 08:31:50;;;;;;;;;;;128.40;2252.80;;;;;;5086675;28;19908;-78
2024/01/28 08:34:16;;;;;;;;;;;128.60;2252.80;;;;;;5106563;28;19915;-78
2024/01/28 08:36:42;;;;;;;;;;;128.70;2252.80;;;;;;5093034;28;20325;-75
2024/01/28 08:39:09;;;;;;;;;;;128.70;2252.80;;;;;;5087561;28;19903;-79
2024/01/28 08:41:36;;;;;;;;;;;128.90;2252.80;;;;;;5085278;28;19931;-76
2024/01/28 08:44:03;;;;;;;;;;;128.80;2252.80;;;;;;5109172;28;19908;-78
2024/01/28 08:46:29;;;;;;;;;;;128.80;2252.80;;;;;;5085311;28;19916;-76
2024/01/28 08:48:55;;;;;;;;;;;128.80;2252.80;;;;;;5089423;28;20395;-75
2024/01/28 08:51:20;;;;;;;;;;;128.90;2252.80;;;;;;5088148;28;19912;-79
2024/01/28 08:53:46;;;;;;;;;;;153.60;2252.80;;;;;;5104946;28;20377;-79
2024/01/28 08:56:11;;;;;;;;;;;128.90;2252.80;;;;;;5105055;28;20354;-81
2024/01/28 08:58:37;;;;;;;;;;;153.60;2252.80;;;;;;5111312;28;19986;-78
2024/01/28 09:01:03;;;;;;;;;;;128.90;2252.80;;;;;;5104454;28;19974;-77
2024/01/28 09:03:28;;;;;;;;;;;128.90;2252.80;;;;;;5106100;28;19916;-78
2024/01/28 09:05:54;;;;;;;;;;;128.90;2252.80;;;;;;5107973;28;20259;-78
2024/01/28 09:08:20;;;;;;;;;;;128.80;2252.80;;;;;;5114788;28;20368;-78
2024/01/28 09:10:45;;;;;;;;;;;128.90;2252.80;;;;;;5108172;28;19939;-76
2024/01/28 09:13:11;;;;;;;;;;;153.70;2252.80;;;;;;5105231;28;19908;-76
2024/01/28 09:15:36;;;;;;;;;;;153.80;2252.80;;;;;;5114415;28;20428;-76
2024/01/28 09:18:02;;;;;;;;;;;153.60;2252.80;;;;;;5105347;28;19932;-76
2024/01/28 09:20:28;;;;;;;;;;;153.80;2252.80;;;;;;5105507;28;19908;-77
2024/01/28 09:22:53;;;;;;;;;;;153.80;2252.80;;;;;;5107468;28;19907;-76
2024/01/28 09:25:19;;;;;;;;;;;154.00;2252.80;;;;;;5108752;28;20098;-78
2024/01/28 09:27:48;;;;;;;;;;;154.10;2252.80;;;;;;5110955;28;19904;-75
2024/01/28 09:30:14;;;;;;;;;;;154.10;2252.80;;;;;;5111744;28;20373;-78
2024/01/28 09:32:39;;;;;;;;;;;154.10;2252.80;;;;;;5106996;28;19991;-76
2024/01/28 09:35:06;;;;;;;;;;;154.10;2252.80;;;;;;5102909;28;19943;-75
2024/01/28 09:37:31;;;;;;;;;;;154.10;2252.80;;;;;;5105786;28;19991;-75
2024/01/28 09:39:57;;;;;;;;;;;154.40;2252.80;;;;;;5103506;28;20367;-75
2024/01/28 09:42:24;;;;;;;;;;;154.40;2252.80;;;;;;5107956;28;19912;-75
2024/01/28 09:44:50;;;;;;;;;;;179.20;2252.80;;;;;;5103281;28;19904;-75
2024/01/28 09:47:19;;;;;;;;;;;154.50;2252.80;;;;;;5108318;28;19922;-74
2024/01/28 09:49:45;;;;;;;;;;;179.20;2252.80;;;;;;5108031;28;19956;-74
2024/01/28 09:52:11;;;;;;;;;;;179.30;2252.80;;;;;;5104045;28;19994;-77
2024/01/28 09:54:41;;;;;;;;;;;179.30;2252.80;;;;;;5095919;28;20011;-75
2024/01/28 09:57:08;;;;;;;;;;;179.50;2252.80;;;;;;5096239;28;19912;-75
2024/01/28 09:59:35;;;;;;;;;;;179.60;2252.80;;;;;;5106680;28;20444;-75
2024/01/28 10:02:01;;;;;;;;;;;179.60;2252.80;;;;;;5107741;28;19903;-76
2024/01/28 10:04:27;;;;;;;;;;;179.70;2252.80;;;;;;5107162;28;19923;-75
2024/01/28 10:06:57;;;;;;;;;;;179.80;2252.80;;;;;;5112637;28;19987;-75
2024/01/28 10:09:26;;;;;;;;;;;179.90;2252.80;;;;;;5098699;28;19920;-75
2024/01/28 10:11:52;;;;;;;;;;;180.10;2252.80;;;;;;5113289;28;20303;-76
2024/01/28 10:14:18;;;;;;;;;;;180.10;2252.80;;;;;;5113199;28;19996;-75
2024/01/28 10:16:47;;;;;;;;;;;180.10;2252.80;;;;;;5099030;28;19908;-75
2024/01/28 10:19:13;;;;;;;;;;;180.10;2252.80;;;;;;5112604;28;20039;-75
2024/01/28 10:21:38;;;;;;;;;;;204.90;2252.80;;;;;;5114477;28;19907;-75
2024/01/28 10:24:04;;;;;;;;;;;205.00;2252.80;;;;;;5111249;28;19951;-75
2024/01/28 10:26:30;;;;;;;;;;;205.20;2252.80;;;;;;5097789;28;20314;-75
2024/01/28 10:28:56;;;;;;;;;;;205.10;2252.80;;;;;;5111501;28;20416;-75
2024/01/28 10:31:22;;;;;;;;;;;205.10;2252.80;;;;;;5112747;28;20289;-75
2024/01/28 10:33:49;;;;;;;;;;;205.20;2252.80;;;;;;5096105;28;19961;-75
2024/01/28 10:36:15;;;;;;;;;;;230.40;2252.80;;;;;;5095798;28;19956;-75
2024/01/28 10:38:44;;;;;;;;;;;230.40;2252.80;;;;;;5095452;28;19961;-76
2024/01/28 10:41:10;;;;;;;;;;;230.60;2252.80;;;;;;5091268;28;20257;-75
2024/01/28 10:43:37;;;;;;;;;;;231.20;2252.80;;;;;;5095115;28;19953;-76
2024/01/28 10:46:05;;;;;;;;;;;256.30;2252.80;;;;;;5093778;28;19915;-75
2024/01/28 10:48:31;;;;;;;;;;;256.80;2252.80;;;;;;5102293;28;19908;-75
2024/01/28 10:50:57;;;;;;;;;;;281.90;2278.40;;;;;;5092920;28;20369;-75
2024/01/28 10:53:23;;;;;;;;;;;307.20;2304.00;;;;;;5095900;28;20019;-79
2024/01/28 10:55:49;;;;;;;;;;;282.50;2278.40;;;;;;5084935;28;20313;-75
2024/01/28 10:58:16;;;;;;;;;;;282.40;2252.80;;;;;;5093792;28;20432;-74
2024/01/28 11:00:42;;;;;;;;;;;307.30;2227.20;;;;;;5099162;28;19954;-75
2024/01/28 11:03:08;;;;;;;;;;;307.40;2201.60;;;;;;5105386;28;19930;-75
2024/01/28 11:05:36;;;;;;;;;;;307.50;2176.00;;;;;;5096647;28;19920;-75
2024/01/28 11:08:02;;;;;;;;;;;307.80;2150.40;;;;;;5107803;28;19980;-74
2024/01/28 11:10:29;;;;;;;;;;;308.00;2124.80;;;;;;5105275;28;19915;-74
2024/01/28 11:12:56;;;;;;;;;;;332.80;2099.20;;;;;;5091983;28;20285;-75
2024/01/28 11:15:26;;;;;;;;;;;333.10;1996.80;;;;;;5092798;28;19914;-76
2024/01/28 11:17:51;;;;;;;;;;;308.10;1996.80;;;;;;5101760;28;19986;-75
2024/01/28 11:20:23;;;;;;;;;;;307.40;2150.40;;;;;;5104054;28;20369;-75
2024/01/28 11:22:55;;;;;;;;;;;307.40;2252.80;;;;;;5098123;28;19954;-76
2024/01/28 11:25:25;;;;;;;;;;;307.30;2201.60;;;;;;5089344;28;20136;-77
2024/01/28 11:27:51;;;;;;;;;;;307.20;2278.40;;;;;;5089319;28;19987;-77
2024/01/28 11:30:21;;;;;;;;;;;282.30;2278.40;;;;;;5083637;28;19917;-77
2024/01/28 11:32:47;;;;;;;;;;;282.00;2278.40;;;;;;5105969;28;20310;-77
2024/01/28 11:35:13;;;;;;;;;;;281.70;2278.40;;;;;;5110547;28;20034;-77
2024/01/28 11:37:52;;;;;;;;;;;281.60;2278.40;;;;;;5106021;28;19904;-76
2024/01/28 11:40:21;;;;;;;;;;;256.80;2252.80;;;;;;5099095;28;19908;-77
2024/01/28 11:42:47;;;;;;;;;;;256.60;2252.80;;;;;;5082762;28;20264;-79
2024/01/28 11:45:13;;;;;;;;;;;256.60;2252.80;;;;;;5084940;28;20006;-77
2024/01/28 11:47:40;;;;;;;;;;;256.70;2252.80;;;;;;5100609;28;20454;-78
2024/01/28 11:50:06;;;;;;;;;;;256.70;2252.80;;;;;;5086167;28;19926;-78
2024/01/28 11:52:32;;;;;;;;;;;256.30;2252.80;;;;;;5096055;28;19919;-75
2024/01/28 11:55:07;;;;;;;;;;;256.20;2252.80;;;;;;5122341;28;19916;-78
2024/01/28 11:57:33;;;;;;;;;;;256.30;2252.80;;;;;;5111016;28;19943;-75
2024/01/28 11:59:59;;;;;;;;;;;256.20;2252.80;;;;;;5111339;28;19945;-76
2024/01/28 12:02:24;;;;;;;;;;;256.10;2252.80;;;;;;5112321;28;20345;-76
2024/01/28 12:04:54;;;;;;;;;;;256.20;2252.80;;;;;;5110303;28;20324;-76
2024/01/28 12:07:21;;;;;;;;;;;256.20;2252.80;;;;;;5100819;28;19918;-75
2024/01/28 12:09:49;;;;;;;;;;;256.10;2252.80;;;;;;5127433;28;19908;-75
2024/01/28 12:12:14;;;;;;;;;;;256.00;2252.80;;;;;;5120839;28;19904;-75
2024/01/28 12:14:41;;;;;;;;;;;256.10;2252.80;;;;;;5106324;28;19914;-75
2024/01/28 12:17:07;;;;;;;;;;;256.00;2252.80;;;;;;5123666;28;19911;-75
2024/01/28 12:19:33;;;;;;;;;;;256.10;2252.80;;;;;;5124880;28;19957;-75
2024/01/28 12:21:59;;;;;;;;;;;256.10;2252.80;;;;;;5121461;28;19990;-75
2024/01/28 12:24:25;;;;;;;;;;;256.10;2252.80;;;;;;5103730;28;19940;-75
2024/01/28 12:26:51;;;;;;;;;;;256.10;2252.80;;;;;;5110905;28;19915;-76
2024/01/28 12:29:16;;;;;;;;;;;256.20;2252.80;;;;;;5103019;28;19907;-75
2024/01/28 12:31:42;;;;;;;;;;;256.20;2252.80;;;;;;5119832;27;19907;-75
2024/01/28 12:34:15;;;;;;;;;;;256.10;2252.80;;;;;;5114909;28;20323;-75
2024/01/28 12:36:41;;;;;;;;;;;256.10;2252.80;;;;;;5126417;27;19960;-75
2024/01/28 12:39:06;;;;;;;;;;;256.00;2252.80;;;;;;5100739;27;19908;-75
2024/01/28 12:41:32;;;;;;;;;;;231.30;2252.80;;;;;;5125922;27;20348;-78
2024/01/28 12:43:58;;;;;;;;;;;256.10;2252.80;;;;;;5125235;27;19914;-76
2024/01/28 12:46:23;;;;;;;;;;;256.10;2252.80;;;;;;5128777;27;19972;-75
2024/01/28 12:48:49;;;;;;;;;;;256.10;2252.80;;;;;;5121499;27;19915;-75
2024/01/28 12:51:14;;;;;;;;;;;256.10;2252.80;;;;;;5126413;27;20281;-75
2024/01/28 12:53:40;;;;;;;;;;;256.10;2252.80;;;;;;5121034;27;19919;-75
2024/01/28 12:56:06;;;;;;;;;;;256.10;2252.80;;;;;;5111141;28;19903;-74
2024/01/28 12:58:32;;;;;;;;;;;256.00;2252.80;;;;;;5080895;28;20303;-75
2024/01/28 13:00:58;;;;;;;;;;;256.10;2252.80;;;;;;5095269;28;19959;-76
2024/01/28 13:03:24;;;;;;;;;;;231.30;2252.80;;;;;;5087493;28;19958;-74
2024/01/28 13:05:49;;;;;;;;;;;231.30;2252.80;;;;;;5123599;27;19912;-74
2024/01/28 13:08:15;;;;;;;;;;;256.00;2252.80;;;;;;5127040;27;19934;-75
2024/01/28 13:10:40;;;;;;;;;;;256.10;2252.80;;;;;;5103278;28;19912;-76
2024/01/28 13:13:06;;;;;;;;;;;256.20;2252.80;;;;;;5088014;28;19943;-74
2024/01/28 13:15:31;;;;;;;;;;;256.20;2252.80;;;;;;5087806;28;19980;-75
2024/01/28 13:17:57;;;;;;;;;;;256.10;2252.80;;;;;;5106034;28;20338;-76
2024/01/28 13:20:23;;;;;;;;;;;256.10;2252.80;;;;;;5108222;27;19969;-75
2024/01/28 13:22:48;;;;;;;;;;;256.10;2252.80;;;;;;5107087;28;19908;-75
2024/01/28 13:25:17;;;;;;;;;;;256.10;2252.80;;;;;;5095145;28;19952;-75
2024/01/28 13:27:42;;;;;;;;;;;256.00;2252.80;;;;;;5100699;28;19911;-75
2024/01/28 13:30:11;;;;;;;;;;;256.00;2252.80;;;;;;5093059;28;19908;-75
2024/01/28 13:32:37;;;;;;;;;;;231.30;2252.80;;;;;;5106350;28;19908;-75
2024/01/28 13:35:06;;;;;;;;;;;231.30;2252.80;;;;;;5107650;28;20007;-74